createdAt,value
2019-01-21T00:01:26.419Z,80.22
2019-01-21T00:06:29.055Z,80.39
2019-01-21T00:11:31.738Z,80.70
2019-01-21T00:16:34.438Z,81.02
2019-01-21T00:21:37.038Z,80.71
2019-01-21T00:26:39.638Z,80.37
2019-01-21T00:31:42.199Z,79.77
2019-01-21T00:36:44.779Z,79.49
2019-01-21T00:41:48.498Z,79.55
2019-01-21T00:46:51.157Z,79.47
2019-01-21T00:51:53.924Z,79.40
2019-01-21T00:56:56.561Z,79.71
2019-01-21T01:01:59.036Z,80.22
2019-01-21T01:07:01.676Z,80.37
2019-01-21T01:12:04.578Z,80.02
2019-01-21T01:17:07.149Z,79.85
2019-01-21T01:22:09.577Z,79.95
2019-01-21T01:27:11.946Z,79.96
2019-01-21T01:32:14.447Z,79.98
2019-01-21T01:37:16.898Z,80.06
2019-01-21T01:42:20.406Z,80.35
2019-01-21T01:47:22.982Z,80.34
2019-01-21T01:52:25.588Z,80.34
2019-01-21T01:57:28.138Z,80.35
2019-01-21T02:02:30.678Z,80.12
2019-01-21T02:07:33.269Z,79.37
2019-01-21T02:12:45.449Z,79.07
2019-01-21T02:17:51.996Z,79.22
2019-01-21T02:22:57.499Z,79.45
2019-01-21T02:28:18.184Z,79.45
2019-01-21T02:33:44.301Z,79.35
2019-01-21T02:38:59.414Z,79.15
2019-01-21T02:44:20.337Z,79.25
2019-01-21T02:49:52.527Z,78.79
2019-01-21T02:55:19.089Z,78.12
2019-01-21T03:00:34.028Z,77.96
2019-01-21T03:05:50.196Z,78.21
2019-01-21T03:11:05.436Z,78.26
2019-01-21T03:16:24.691Z,78.46
2019-01-21T03:21:49.168Z,78.89
2019-01-21T03:26:56.621Z,79.05
2019-01-21T03:32:17.938Z,79.34
2019-01-21T03:37:49.247Z,79.84
2019-01-21T03:42:58.667Z,80.55
2019-01-21T03:53:51.200Z,80.13
2019-01-21T03:59:13.152Z,79.97
2019-01-21T04:04:44.183Z,80.16
2019-01-21T04:09:59.009Z,80.59
2019-01-21T04:15:16.092Z,80.83
2019-01-21T04:20:33.204Z,80.76
2019-01-21T04:25:49.178Z,80.57
2019-01-21T04:31:10.188Z,81.11
2019-01-21T04:36:51.513Z,80.72
2019-01-21T04:42:07.129Z,80.76
2019-01-21T04:47:25.294Z,81.04
2019-01-21T04:52:43.244Z,81.54
2019-01-21T04:58:11.343Z,81.97
2019-01-21T05:03:35.083Z,82.39
2019-01-21T05:08:54.254Z,82.42
2019-01-21T05:14:11.137Z,82.33
2019-01-21T05:19:32.258Z,82.43
2019-01-21T05:24:49.229Z,82.79
2019-01-21T05:30:12.432Z,83.51
2019-01-21T05:35:41.563Z,84.38
2019-01-21T05:40:57.080Z,84.78
2019-01-21T05:46:26.395Z,84.65
2019-01-21T05:51:52.104Z,83.91
2019-01-21T05:57:13.263Z,82.81
2019-01-21T06:02:39.478Z,81.97
2019-01-21T06:08:00.269Z,81.43
2019-01-21T06:13:16.467Z,80.57
2019-01-21T06:18:34.194Z,79.93
2019-01-21T06:23:48.533Z,79.96
2019-01-21T06:29:06.137Z,80.12
2019-01-21T06:34:37.123Z,80.11
2019-01-21T06:40:05.263Z,79.88
2019-01-21T06:45:25.214Z,79.58
2019-01-21T06:50:47.302Z,79.56
2019-01-21T06:56:12.288Z,79.68
2019-01-21T07:01:34.218Z,79.85
2019-01-21T07:06:53.049Z,79.90
2019-01-21T07:12:05.808Z,79.87
2019-01-21T07:34:04.140Z,80.66
2019-01-21T07:39:35.158Z,80.63
2019-01-21T07:44:54.757Z,80.53
2019-01-21T07:50:11.289Z,80.42
2019-01-21T07:55:27.660Z,80.57
2019-01-21T08:00:42.526Z,80.21
2019-01-21T08:05:57.546Z,80.21
2019-01-21T08:11:15.672Z,80.20
2019-01-21T08:16:32.747Z,80.02
2019-01-21T08:22:00.099Z,79.65
2019-01-21T08:27:18.580Z,79.63
2019-01-21T08:32:33.306Z,80.17
2019-01-21T08:37:58.286Z,81.13
2019-01-21T08:43:22.655Z,80.96
2019-01-21T08:48:43.101Z,81.37
2019-01-21T08:54:04.196Z,81.66
2019-01-21T08:59:13.855Z,81.83
2019-01-21T09:04:36.426Z,82.18
2019-01-21T09:09:59.454Z,82.29
2019-01-21T09:15:14.798Z,82.18
2019-01-21T09:20:34.694Z,81.87
2019-01-21T09:25:53.445Z,81.45
2019-01-21T09:31:14.147Z,79.94
2019-01-21T09:36:40.896Z,77.35
2019-01-21T09:41:52.521Z,75.98
2019-01-21T09:46:53.946Z,73.20
2019-01-21T09:52:09.238Z,71.60
2019-01-21T09:57:22.202Z,70.30
2019-01-21T10:02:34.862Z,71.22
2019-01-21T10:08:02.934Z,73.61
2019-01-21T10:13:29.307Z,71.87
2019-01-21T10:18:45.983Z,69.20
2019-01-21T10:24:02.198Z,69.43
2019-01-21T10:29:20.492Z,69.85
2019-01-21T10:34:46.122Z,69.50
2019-01-21T10:40:02.812Z,70.74
2019-01-21T10:45:23.177Z,72.24
2019-01-21T10:50:46.366Z,73.41
2019-01-21T10:56:02.835Z,73.61
2019-01-21T11:01:24.243Z,74.02
2019-01-21T11:06:45.011Z,74.40
2019-01-21T11:12:11.771Z,74.19
2019-01-21T11:17:28.186Z,71.20
2019-01-21T11:22:37.887Z,67.29
2019-01-21T11:27:53.377Z,65.91
2019-01-21T11:33:22.389Z,65.55
2019-01-21T11:38:38.277Z,65.51
2019-01-21T11:43:55.126Z,66.64
2019-01-21T11:49:13.196Z,65.05
2019-01-21T11:54:31.436Z,65.20
2019-01-21T11:59:44.177Z,66.12
2019-01-21T12:04:56.413Z,69.24
2019-01-21T12:10:28.952Z,70.39
2019-01-21T12:15:49.534Z,72.00
2019-01-21T12:21:10.270Z,73.05
2019-01-21T12:26:25.878Z,72.84
2019-01-21T12:31:43.165Z,71.91
2019-01-21T12:36:58.778Z,72.29
2019-01-21T12:42:14.821Z,71.91
2019-01-21T12:47:34.136Z,71.58
2019-01-21T12:52:51.291Z,71.46
2019-01-21T12:58:14.122Z,70.33
2019-01-21T13:03:32.206Z,70.41
2019-01-21T13:08:47.416Z,69.75
2019-01-21T13:13:59.165Z,70.55
2019-01-21T13:19:24.877Z,71.75
2019-01-21T13:24:40.075Z,72.62
2019-01-21T13:30:08.151Z,72.45
2019-01-21T13:35:36.183Z,71.17
2019-01-21T13:41:01.037Z,71.94
2019-01-21T13:46:31.417Z,71.56
2019-01-21T13:51:49.266Z,71.42
2019-01-21T13:57:09.358Z,68.98
2019-01-21T14:02:21.023Z,70.47
2019-01-21T14:07:42.221Z,70.66
2019-01-21T14:13:04.454Z,69.88
2019-01-21T14:18:26.374Z,70.29
2019-01-21T14:23:35.910Z,70.81
2019-01-21T14:28:56.738Z,71.67
2019-01-21T14:34:08.166Z,71.11
2019-01-21T14:39:19.615Z,72.01
2019-01-21T14:44:57.697Z,72.61
2019-01-21T14:50:11.798Z,73.47
2019-01-21T14:55:27.259Z,73.79
2019-01-21T15:00:46.431Z,73.76
2019-01-21T15:06:01.946Z,73.81
2019-01-21T15:11:26.037Z,73.75
2019-01-21T15:16:44.016Z,74.47
2019-01-21T15:22:09.628Z,75.41
2019-01-21T15:27:27.343Z,76.62
2019-01-21T15:32:46.517Z,77.43
2019-01-21T15:37:59.852Z,76.34
2019-01-21T15:43:33.609Z,75.51
2019-01-21T15:48:53.710Z,74.15
2019-01-21T15:54:01.164Z,72.74
2019-01-21T15:59:23.016Z,72.63
2019-01-21T16:04:39.362Z,72.21
2019-01-21T16:09:53.669Z,72.79
2019-01-21T16:15:05.719Z,72.90
2019-01-21T16:20:14.991Z,73.36
2019-01-21T16:25:32.819Z,73.87
2019-01-21T16:30:43.410Z,74.51
2019-01-21T16:36:09.093Z,75.30
2019-01-21T16:41:26.806Z,75.76
2019-01-21T16:46:29.452Z,76.16
2019-01-21T16:51:32.232Z,76.10
2019-01-21T16:56:34.967Z,77.94
2019-01-21T17:01:37.898Z,79.43
2019-01-21T17:06:40.580Z,81.19
2019-01-21T17:11:43.323Z,82.27
2019-01-21T17:16:45.952Z,83.58
2019-01-21T17:21:48.721Z,84.63
2019-01-21T17:26:51.453Z,85.22
2019-01-21T17:31:54.266Z,85.87
2019-01-21T17:36:57.186Z,86.51
2019-01-21T17:42:00.015Z,86.54
2019-01-21T17:47:02.552Z,86.38
2019-01-21T17:52:05.391Z,86.25
2019-01-21T17:57:07.926Z,86.49
2019-01-21T18:02:10.627Z,86.22
2019-01-21T18:07:13.491Z,86.17
2019-01-21T18:12:16.110Z,85.61
2019-01-21T18:17:18.963Z,85.66
2019-01-21T18:22:21.731Z,85.90
2019-01-21T18:27:24.646Z,85.67
2019-01-21T18:32:27.352Z,85.89
2019-01-21T18:37:30.091Z,86.11
2019-01-21T18:42:32.691Z,86.31
2019-01-21T18:47:35.250Z,84.74
2019-01-21T18:52:37.995Z,84.38
2019-01-21T18:57:40.618Z,83.98
2019-01-21T19:02:43.413Z,83.74
2019-01-21T19:07:46.038Z,83.48
2019-01-21T19:12:49.119Z,83.34
2019-01-21T19:17:52.992Z,82.37
2019-01-21T19:22:55.543Z,82.27
2019-01-21T19:27:58.085Z,81.89
2019-01-21T19:33:00.714Z,81.63
2019-01-21T19:38:04.618Z,81.64
2019-01-21T19:43:07.303Z,81.71
2019-01-21T19:48:09.873Z,81.57
2019-01-21T19:53:12.410Z,82.98
2019-01-21T19:58:15.159Z,84.58
2019-01-21T20:03:17.719Z,85.31
2019-01-21T20:08:21.493Z,85.98
2019-01-21T20:13:24.006Z,86.07
2019-01-21T20:18:26.569Z,86.71
2019-01-21T20:23:29.158Z,86.98
2019-01-21T20:28:31.634Z,87.44
2019-01-21T20:33:34.119Z,87.86
2019-01-21T20:38:36.744Z,87.64
2019-01-21T20:43:39.404Z,88.01
2019-01-21T20:48:41.921Z,88.31
2019-01-21T20:53:44.528Z,88.05
2019-01-21T20:58:47.458Z,87.16
2019-01-21T21:03:50.024Z,87.46
2019-01-21T21:08:52.662Z,87.79
2019-01-21T21:13:55.292Z,88.09
2019-01-21T21:18:57.729Z,87.88
2019-01-21T21:24:00.204Z,87.70
2019-01-21T21:29:02.779Z,88.19
2019-01-21T21:34:05.353Z,88.51
2019-01-21T21:39:08.058Z,88.94
2019-01-21T21:44:10.531Z,89.48
2019-01-21T21:49:13.074Z,88.80
2019-01-21T21:54:15.693Z,88.91
2019-01-21T21:59:18.338Z,88.69
2019-01-21T22:04:20.823Z,88.69
2019-01-21T22:09:23.394Z,88.63
2019-01-21T22:14:25.888Z,88.61
2019-01-21T22:19:28.365Z,88.67
2019-01-21T22:24:31.251Z,88.11
2019-01-21T22:29:33.858Z,85.70
2019-01-21T22:34:36.348Z,83.71
2019-01-21T22:39:38.993Z,82.74
2019-01-21T22:44:41.593Z,81.94
2019-01-21T22:49:44.239Z,80.13
2019-01-21T22:54:46.822Z,79.00
2019-01-21T22:59:49.329Z,78.18
2019-01-21T23:04:52.042Z,76.95
2019-01-21T23:09:54.589Z,76.68
2019-01-21T23:14:57.223Z,76.12
2019-01-21T23:20:00.069Z,76.89
2019-01-21T23:25:03.033Z,76.97
2019-01-21T23:30:08.008Z,77.70
2019-01-21T23:35:10.804Z,77.63
2019-01-21T23:40:13.858Z,78.62
2019-01-21T23:45:16.530Z,77.75
2019-01-21T23:50:19.229Z,77.92
2019-01-21T23:55:21.748Z,74.41
